Time;durP1;ratioP1;P1;durP2;ratioP2;P2;SDS_P1;SDS_P2;PMS_P1;PMS_P2;Temp;Humidity;BMP_temperature;BMP_pressure;BME280_temperature;BME280_humidity;BME280_pressure;Samples;Min_cycle;Max_cycle;Signal;HPM_P1;HPM_P2
2022/05/03 00:00:06;;;;;;;10.95;6.78;;;;;;;16.86;43.79;93141.88;5042185;28;20118;-93
2022/05/03 00:02:50;;;;;;;7.78;6.47;;;;;;;16.87;43.41;93134.41;5015764;28;20882;-92
2022/05/03 00:05:18;;;;;;;8.10;6.03;;;;;;;16.90;43.40;93141.56;5014511;28;20480;-92
2022/05/03 00:07:44;;;;;;;8.32;6.85;;;;;;;16.86;43.57;93139.13;5057294;28;20037;-92
2022/05/03 00:10:14;;;;;;;7.30;6.53;;;;;;;16.84;43.75;93136.16;5046827;28;20071;-91
2022/05/03 00:12:41;;;;;;;9.80;6.57;;;;;;;16.87;43.50;93137.88;5020154;28;20103;-92
2022/05/03 00:15:06;;;;;;;9.70;6.38;;;;;;;16.86;43.37;93130.94;5022812;28;20107;-94
2022/05/03 00:17:33;;;;;;;7.80;5.35;;;;;;;16.86;43.74;93138.41;5008972;28;20493;-92
2022/05/03 00:19:59;;;;;;;8.18;6.40;;;;;;;16.88;43.90;93127.72;5011472;28;20074;-92
2022/05/03 00:22:25;;;;;;;8.07;6.25;;;;;;;16.86;43.49;93133.69;5011574;28;20060;-93
2022/05/03 00:24:54;;;;;;;9.55;6.30;;;;;;;16.86;43.43;93127.47;5020818;28;20037;-92
2022/05/03 00:27:23;;;;;;;7.53;6.50;;;;;;;16.85;43.76;93134.19;5015301;28;20044;-92
2022/05/03 00:29:49;;;;;;;9.25;7.13;;;;;;;16.84;43.38;93130.72;5015661;28;20435;-92
2022/05/03 00:32:14;;;;;;;8.77;6.30;;;;;;;16.85;43.72;93129.47;5015177;28;20037;-92
2022/05/03 00:34:40;;;;;;;10.38;7.43;;;;;;;16.84;43.39;93122.53;5005464;28;20034;-92
2022/05/03 00:37:05;;;;;;;9.02;6.60;;;;;;;16.84;43.59;93130.72;5018098;28;20481;-92
2022/05/03 00:39:30;;;;;;;8.50;6.22;;;;;;;16.83;43.30;93136.69;5008669;28;20037;-93
2022/05/03 00:42:07;;;;;;;7.20;5.97;;;;;;;16.84;43.41;93127.97;5008710;28;20057;-93
2022/05/03 00:45:00;;;;;;;8.30;6.03;;;;;;;16.84;43.65;93125.25;5022627;28;20246;-93
2022/05/03 00:47:48;;;;;;;9.63;6.18;;;;;;;16.86;43.18;93117.28;5027198;28;20488;-93
2022/05/03 00:50:47;;;;;;;7.82;6.03;;;;;;;16.84;43.57;93117.06;5044112;28;20041;-92
2022/05/03 00:53:19;;;;;;;8.27;6.13;;;;;;;16.83;43.55;93123.78;5029460;28;20045;-91
2022/05/03 00:55:55;;;;;;;8.75;6.15;;;;;;;16.83;43.46;93123.03;5011125;28;20087;-93
2022/05/03 00:58:38;;;;;;;9.32;6.22;;;;;;;16.82;43.42;93118.81;5010770;28;20041;-92
2022/05/03 01:01:05;;;;;;;8.15;5.70;;;;;;;16.80;43.79;93116.59;5035611;28;20045;-92
2022/05/03 01:03:34;;;;;;;9.40;6.55;;;;;;;16.80;43.73;93116.59;5031303;28;20060;-92
2022/05/03 01:06:22;;;;;;;9.40;6.35;;;;;;;16.81;43.67;93112.63;5032540;28;20103;-92
2022/05/03 01:09:06;;;;;;;6.57;5.88;;;;;;;16.78;43.50;93108.91;5027091;28;20128;-93
2022/05/03 01:11:46;;;;;;;8.50;5.75;;;;;;;16.79;43.80;93115.84;5027675;28;20076;-92
2022/05/03 01:14:20;;;;;;;7.72;6.28;;;;;;;16.80;43.66;93124.78;5035171;28;20405;-92
2022/05/03 01:16:58;;;;;;;7.38;5.97;;;;;;;16.80;43.26;93111.13;5044261;28;20033;-92
2022/05/03 01:19:27;;;;;;;8.13;6.00;;;;;;;16.82;43.34;93119.56;4995143;28;20660;-92
2022/05/03 01:22:11;;;;;;;7.60;5.70;;;;;;;16.81;43.76;93120.06;5010911;28;20042;-91
2022/05/03 01:24:47;;;;;;;6.97;5.47;;;;;;;16.81;43.59;93118.06;5030990;28;20026;-92
2022/05/03 01:27:41;;;;;;;8.88;6.05;;;;;;;16.81;43.56;93125.53;5010702;28;20037;-93
2022/05/03 01:30:06;;;;;;;8.60;6.10;;;;;;;16.80;43.61;93130.25;5000840;28;20053;-91
2022/05/03 01:32:33;;;;;;;8.63;6.10;;;;;;;16.82;42.98;93127.75;5028114;28;20068;-92
2022/05/03 01:34:58;;;;;;;8.23;6.15;;;;;;;16.78;43.65;93121.81;5011295;28;20041;-93
2022/05/03 01:37:30;;;;;;;10.68;7.13;;;;;;;16.80;43.57;93119.31;5003864;28;20044;-93
2022/05/03 01:40:11;;;;;;;8.07;6.30;;;;;;;16.80;43.66;93127.50;5063852;28;20511;-91
2022/05/03 01:43:03;;;;;;;7.78;5.88;;;;;;;16.78;43.29;93108.91;5014471;28;20055;-91
2022/05/03 01:45:32;;;;;;;8.10;5.95;;;;;;;16.78;43.31;93117.09;4994807;28;20026;-92
2022/05/03 01:48:15;;;;;;;6.70;5.93;;;;;;;16.78;43.40;93113.63;5011005;28;20063;-92
2022/05/03 01:50:58;;;;;;;7.45;5.78;;;;;;;16.77;43.43;93120.31;5030739;28;20030;-93
2022/05/03 01:53:35;;;;;;;7.10;6.10;;;;;;;16.77;43.63;93114.88;5018799;28;20040;-93
2022/05/03 01:56:18;;;;;;;8.07;6.10;;;;;;;16.77;43.32;93109.41;5008295;28;20030;-91
2022/05/03 01:59:04;;;;;;;7.88;6.30;;;;;;;16.78;43.55;93111.63;5011326;28;20100;-92
2022/05/03 02:01:53;;;;;;;7.85;5.82;;;;;;;16.78;43.62;93111.63;5055174;28;20060;-91
2022/05/03 02:04:21;;;;;;;7.78;6.53;;;;;;;16.76;43.38;93103.22;5033886;28;20447;-93
2022/05/03 02:07:07;;;;;;;8.77;6.70;;;;;;;16.77;43.35;93101.22;5039186;28;20033;-93
2022/05/03 02:09:45;;;;;;;7.07;6.38;;;;;;;16.78;43.60;93110.88;5030554;28;20042;-91
2022/05/03 02:12:18;;;;;;;7.75;6.18;;;;;;;16.77;43.38;93104.69;5027510;28;20038;-94
2022/05/03 02:15:04;;;;;;;8.85;6.00;;;;;;;16.76;43.46;93102.47;5031627;28;20056;-93
2022/05/03 02:17:49;;;;;;;9.68;7.13;;;;;;;16.76;43.34;93105.19;5000030;28;20132;-94
2022/05/03 02:20:33;;;;;;;7.57;5.85;;;;;;;16.76;43.62;93107.94;5010553;28;20536;-92
2022/05/03 02:23:12;;;;;;;8.98;6.20;;;;;;;16.76;43.28;93107.94;5047493;28;20049;-93
2022/05/03 02:25:49;;;;;;;8.60;6.28;;;;;;;16.77;43.38;93109.41;5040007;28;20112;-92
2022/05/03 02:28:24;;;;;;;7.97;6.20;;;;;;;16.75;43.23;93107.19;5021977;28;20056;-91
2022/05/03 02:30:50;;;;;;;9.70;6.65;;;;;;;16.74;43.08;93104.97;5010435;28;20042;-91
2022/05/03 02:33:38;;;;;;;7.10;5.97;;;;;;;16.75;43.53;93109.91;4997853;28;20041;-92
2022/05/03 02:36:04;;;;;;;6.63;5.78;;;;;;;16.74;43.28;93107.69;5013798;28;20038;-94
2022/05/03 02:38:36;;;;;;;9.75;6.38;;;;;;;16.73;43.48;93106.94;5012820;28;20063;-92
2022/05/03 02:41:02;;;;;;;7.10;5.47;;;;;;;16.72;43.63;93100.00;5016967;28;20052;-91
2022/05/03 02:43:28;;;;;;;7.35;6.55;;;;;;;16.74;43.36;93102.22;5015062;28;20034;-91
2022/05/03 02:45:57;;;;;;;6.80;5.93;;;;;;;16.74;43.58;93110.41;5010099;28;20042;-92
2022/05/03 02:48:33;;;;;;;6.72;5.38;;;;;;;16.73;43.38;93098.75;5030180;28;20538;-93
2022/05/03 02:51:03;;;;;;;7.75;5.80;;;;;;;16.72;43.28;93099.25;5032156;28;20099;-93
2022/05/03 02:53:47;;;;;;;8.10;6.65;;;;;;;16.73;43.30;93111.66;5013661;28;20040;-91
2022/05/03 02:56:24;;;;;;;8.30;6.50;;;;;;;16.73;43.29;93106.94;5013663;28;20033;-93
2022/05/03 02:59:10;;;;;;;7.05;5.82;;;;;;;16.73;43.28;93106.94;5029520;28;20025;-92
2022/05/03 03:02:02;;;;;;;7.70;5.68;;;;;;;16.72;43.29;93093.81;5004048;28;20033;-91
2022/05/03 03:04:46;;;;;;;10.30;6.10;;;;;;;16.72;43.19;93100.00;5005298;28;20124;-92
2022/05/03 03:07:20;;;;;;;9.35;6.35;;;;;;;16.70;43.16;93097.03;5030095;28;20045;-92
2022/05/03 03:09:48;;;;;;;7.40;5.85;;;;;;;16.72;43.31;93099.25;5021255;28;20034;-92
2022/05/03 03:12:35;;;;;;;8.55;6.22;;;;;;;16.70;43.68;93099.78;5029652;28;20100;-91
2022/05/03 03:15:04;;;;;;;9.13;6.95;;;;;;;16.70;43.36;93096.31;5029717;28;20037;-92
2022/05/03 03:17:29;;;;;;;10.15;6.05;;;;;;;16.69;43.23;93100.28;5013014;28;20542;-92
2022/05/03 03:19:55;;;;;;;7.70;5.95;;;;;;;16.70;43.47;93093.56;5029871;28;20030;-92
2022/05/03 03:22:21;;;;;;;6.63;5.55;;;;;;;16.69;43.24;93094.81;5029020;28;20036;-93
2022/05/03 03:24:47;;;;;;;7.78;6.25;;;;;;;16.69;43.36;93094.81;5010150;28;20084;-91
2022/05/03 03:27:12;;;;;;;7.53;6.72;;;;;;;16.68;43.63;93096.81;5030000;28;20030;-92
2022/05/03 03:29:39;;;;;;;8.05;6.10;;;;;;;16.71;43.69;93097.78;5030717;28;20029;-91
2022/05/03 03:32:06;;;;;;;6.88;5.75;;;;;;;16.70;43.43;93099.78;5031666;28;20043;-93
2022/05/03 03:34:32;;;;;;;8.90;6.22;;;;;;;16.68;43.01;93101.53;5032573;28;20124;-92
2022/05/03 03:37:01;;;;;;;7.60;6.30;;;;;;;16.70;43.49;93096.31;5024468;28;20122;-92
2022/05/03 03:39:30;;;;;;;8.80;6.28;;;;;;;16.69;43.59;93098.28;4993073;28;20034;-93
2022/05/03 03:42:03;;;;;;;6.82;5.40;;;;;;;16.74;43.47;93104.97;5027226;28;20065;-93
2022/05/03 03:44:29;;;;;;;7.97;6.32;;;;;;;16.71;43.28;93109.44;4994117;28;20046;-89
2022/05/03 03:46:55;;;;;;;6.90;5.95;;;;;;;16.69;43.26;93103.00;5026089;28;20038;-93
2022/05/03 03:49:20;;;;;;;8.60;5.85;;;;;;;16.70;42.86;93109.94;5016549;28;20083;-89
2022/05/03 03:51:46;;;;;;;8.38;6.25;;;;;;;16.76;43.01;93105.94;5048981;28;20093;-91
2022/05/03 03:54:11;;;;;;;7.43;6.47;;;;;;;16.73;43.08;93108.94;5047693;28;20032;-91
2022/05/03 03:56:37;;;;;;;7.68;5.93;;;;;;;16.72;43.13;93112.91;5006515;28;20049;-90
2022/05/03 03:59:02;;;;;;;12.52;6.78;;;;;;;16.74;43.02;93102.22;5020444;28;20121;-92
2022/05/03 04:01:28;;;;;;;10.25;6.97;;;;;;;16.82;43.09;93125.00;4998932;28;20052;-90
2022/05/03 04:03:53;;;;;;;8.10;6.20;;;;;;;16.81;42.70;93120.81;5014565;28;20037;-91
2022/05/03 04:06:19;;;;;;;32.55;8.75;;;;;;;16.81;41.84;93111.88;5006699;28;20046;-93
2022/05/03 04:08:44;;;;;;;22.50;8.30;;;;;;;16.86;41.49;93120.03;4991564;28;20406;-90
2022/05/03 04:11:16;;;;;;;20.10;8.68;;;;;;;16.89;41.47;93113.53;4997696;28;20488;-90
2022/05/03 04:13:43;;;;;;;17.42;8.43;;;;;;;16.99;41.09;93114.72;5011488;28;20068;-89
2022/05/03 04:16:08;;;;;;;13.70;7.93;;;;;;;16.84;41.64;93119.06;5026440;28;20033;-88
2022/05/03 04:18:44;;;;;;;16.10;7.68;;;;;;;16.66;42.33;93118.44;5015699;28;20121;-87
2022/05/03 04:21:17;;;;;;;16.13;8.85;;;;;;;16.54;42.73;93116.97;5012404;28;20048;-88
2022/05/03 04:23:43;;;;;;;24.17;8.70;;;;;;;16.49;42.63;93115.00;5007680;28;20030;-88
2022/05/03 04:26:09;;;;;;;16.00;8.35;;;;;;;16.48;42.82;93110.81;5031634;28;20037;-91
2022/05/03 04:28:35;;;;;;;19.60;8.90;;;;;;;16.52;42.82;93114.00;5016500;28;20091;-87
2022/05/03 04:31:02;;;;;;;37.67;12.68;;;;;;;16.52;42.47;93116.00;4997948;28;20057;-93
2022/05/03 04:33:28;;;;;;;31.15;11.80;;;;;;;16.56;42.77;93117.22;5014823;28;20056;-88
2022/05/03 04:35:54;;;;;;;28.48;11.27;;;;;;;16.57;42.73;93126.13;5034840;28;20041;-87
2022/05/03 04:38:20;;;;;;;42.40;12.90;;;;;;;16.60;42.96;93125.88;5022820;28;20176;-89
2022/05/03 04:40:45;;;;;;;78.88;17.00;;;;;;;16.64;43.36;93122.91;5016235;28;20550;-86
2022/05/03 04:43:11;;;;;;;56.10;17.88;;;;;;;16.71;42.81;93125.81;5020962;28;20041;-92
2022/05/03 04:45:43;;;;;;;74.13;17.13;;;;;;;16.73;42.78;93123.31;5001480;28;20040;-94
2022/05/03 04:48:09;;;;;;;81.53;20.63;;;;;;;16.77;43.63;93129.25;5016839;28;20041;-90
2022/05/03 04:50:35;;;;;;;111.00;27.00;;;;;;;16.76;42.83;93130.50;5021655;28;20056;-91
2022/05/03 04:53:03;;;;;;;101.97;28.42;;;;;;;16.78;42.94;93135.47;5022366;28;20098;-95
2022/05/03 04:55:37;;;;;;;91.82;23.95;;;;;;;16.75;42.84;93126.28;5031986;28;20045;-91
2022/05/03 05:00:58;;;;;;;53.92;16.20;;;;;;;16.63;43.64;93130.34;5082113;27;20403;-92
2022/05/03 05:03:23;;;;;;;93.20;31.77;;;;;;;16.56;43.94;93130.84;5035825;28;20044;-87
2022/05/03 05:05:49;;;;;;;112.13;35.63;;;;;;;16.52;43.92;93135.09;5021493;28;20056;-92
2022/05/03 05:08:16;;;;;;;128.35;30.75;;;;;;;16.45;44.12;93139.13;5024713;28;20037;-88
2022/05/03 05:10:41;;;;;;;107.80;29.23;;;;;;;16.48;44.01;93135.34;4998852;28;20068;-92
2022/05/03 05:13:07;;;;;;;80.00;20.85;;;;;;;16.45;44.10;93133.66;4973220;28;20053;-85
2022/05/03 05:15:33;;;;;;;55.63;18.63;;;;;;;16.40;44.53;93134.44;5026463;28;20172;-89
2022/05/03 05:18:20;;;;;;;66.55;20.38;;;;;;;16.44;44.38;93134.91;4994415;28;20046;-94
2022/05/03 05:20:46;;;;;;;90.80;21.90;;;;;;;16.36;44.57;93129.22;5024625;28;20042;-93
2022/05/03 05:23:11;;;;;;;53.97;16.83;;;;;;;16.36;45.10;93131.22;4977011;28;20173;-90
2022/05/03 05:25:37;;;;;;;54.03;18.20;;;;;;;16.33;44.94;93129.50;5298820;22;20488;-91
2022/05/03 05:28:04;;;;;;;50.38;16.23;;;;;;;16.27;45.35;93131.50;5011229;28;20034;-91
2022/05/03 05:30:33;;;;;;;49.80;18.77;;;;;;;16.36;45.24;93128.50;5020257;28;20067;-93
2022/05/03 05:32:59;;;;;;;46.53;21.88;;;;;;;16.29;45.22;93126.28;5032088;28;20129;-91
2022/05/03 05:35:24;;;;;;;69.97;34.45;;;;;;;16.27;45.62;93134.97;5015553;28;20041;-92
2022/05/03 05:37:50;;;;;;;80.90;32.25;;;;;;;16.34;45.67;93136.44;5025853;28;20041;-90
2022/05/03 05:40:16;;;;;;;65.32;26.02;;;;;;;16.33;45.33;93129.50;5028578;28;20041;-89
2022/05/03 05:42:42;;;;;;;76.85;25.85;;;;;;;16.31;46.27;93138.19;5008525;28;20053;-89
2022/05/03 05:45:08;;;;;;;54.25;25.60;;;;;;;16.32;46.08;93136.94;5029486;28;20274;-91
2022/05/03 05:47:33;;;;;;;60.33;24.45;;;;;;;16.35;45.87;93137.91;5024272;28;20049;-87
2022/05/03 05:50:07;;;;;;;120.40;49.63;;;;;;;16.40;46.08;93140.63;5039310;28;20041;-92
2022/05/03 05:55:19;;;;;;;90.53;36.90;;;;;;;16.41;46.35;93131.19;5028332;28;20452;-91
2022/05/03 05:57:44;;;;;;;77.90;35.72;;;;;;;16.45;46.00;93139.13;5014089;28;20559;-91
2022/05/03 06:00:10;;;;;;;80.65;33.60;;;;;;;16.51;46.00;93141.78;5024735;28;20037;-87
2022/05/03 06:02:36;;;;;;;90.32;40.33;;;;;;;16.52;46.23;93132.38;4992860;28;20034;-84
2022/05/03 06:05:01;;;;;;;82.40;38.60;;;;;;;16.58;45.46;93133.81;5008484;28;20057;-88
2022/05/03 06:07:27;;;;;;;102.38;45.72;;;;;;;16.66;45.43;93134.06;4994359;28;20049;-89
2022/05/03 06:09:52;;;;;;;94.93;42.47;;;;;;;16.70;45.12;93146.16;5021402;28;20073;-89
2022/05/03 06:12:18;;;;;;;93.70;43.88;;;;;;;16.76;45.00;93146.13;4995193;28;20049;-90
2022/05/03 06:14:43;;;;;;;91.15;41.47;;;;;;;16.78;44.68;93147.13;4991663;28;20046;-88
2022/05/03 06:17:09;;;;;;;86.38;39.03;;;;;;;16.84;44.61;93146.34;4977907;28;20034;-86
2022/05/03 06:19:34;;;;;;;78.82;37.70;;;;;;;16.84;44.82;93146.34;5010778;28;20052;-87
2022/05/03 06:22:00;;;;;;;82.10;38.47;;;;;;;16.92;44.71;93147.28;4977625;28;20034;-90
2022/05/03 06:24:25;;;;;;;91.35;40.65;;;;;;;16.87;44.60;93139.88;4993932;28;20038;-89
2022/05/03 06:26:51;;;;;;;85.22;37.63;;;;;;;16.86;44.46;93147.31;4971453;28;20104;-90
2022/05/03 06:29:16;;;;;;;91.65;41.03;;;;;;;16.86;44.97;93150.06;4993038;28;20413;-88
2022/05/03 06:31:42;;;;;;;66.50;35.05;;;;;;;16.88;44.65;93147.56;4992992;28;20037;-89
2022/05/03 06:34:08;;;;;;;69.03;36.50;;;;;;;16.88;44.67;93141.38;4997121;28;20043;-91
2022/05/03 06:36:35;;;;;;;68.07;36.42;;;;;;;16.90;44.80;93150.50;5020084;28;20467;-91
2022/05/03 06:39:01;;;;;;;64.07;34.63;;;;;;;16.93;44.56;93154.94;4988555;28;20038;-89
2022/05/03 06:41:27;;;;;;;79.18;37.55;;;;;;;16.91;44.91;93157.44;4991112;28;20045;-90
2022/05/03 06:43:53;;;;;;;97.68;45.30;;;;;;;16.96;44.54;93142.28;4988957;28;20113;-90
2022/05/03 06:46:19;;;;;;;84.93;43.33;;;;;;;16.93;44.32;93151.47;5023063;28;20056;-90
2022/05/03 06:48:47;;;;;;;97.13;47.70;;;;;;;16.94;44.28;93148.25;5013833;28;20040;-88
2022/05/03 06:51:13;;;;;;;147.50;66.72;;;;;;;16.94;44.53;93148.25;4998336;28;20521;-88
2022/05/03 06:53:41;;;;;;;132.70;63.70;;;;;;;16.94;44.25;93150.97;4984429;28;20038;-89
2022/05/03 06:56:06;;;;;;;136.10;70.03;;;;;;;16.97;44.48;93149.22;4960910;28;20493;-91
2022/05/03 06:58:31;;;;;;;139.63;71.28;;;;;;;17.00;44.39;93151.69;4956748;28;20038;-89
2022/05/03 07:00:57;;;;;;;171.10;89.68;;;;;;;16.99;44.27;93155.66;4945030;28;20066;-90
2022/05/03 07:03:22;;;;;;;202.65;94.13;;;;;;;16.99;44.20;93152.19;4954977;28;20076;-89
2022/05/03 07:05:48;;;;;;;198.80;94.22;;;;;;;17.02;44.75;93159.38;4945992;28;20047;-90
2022/05/03 07:08:14;;;;;;;191.48;88.25;;;;;;;17.04;44.21;93159.59;4950212;28;20043;-91
2022/05/03 07:10:42;;;;;;;129.13;55.95;;;;;;;16.97;45.15;93157.41;4961966;28;20042;-84
2022/05/03 07:13:13;;;;;;;163.10;69.53;;;;;;;16.97;44.77;93162.88;4971806;28;20614;-89
2022/05/03 07:15:40;;;;;;;148.93;66.13;;;;;;;17.01;44.55;93158.63;4951896;28;20042;-88
2022/05/03 07:23:33;;;;;;;118.13;41.72;;;;;;;16.95;45.50;93159.91;4960397;28;20045;-87
2022/05/03 07:25:59;;;;;;;154.57;45.00;;;;;;;16.99;45.00;93160.38;4944665;28;20497;-90
2022/05/03 07:28:25;;;;;;;154.77;47.58;;;;;;;17.00;44.79;93157.16;4995522;28;20036;-92
2022/05/03 07:30:50;;;;;;;141.38;50.78;;;;;;;17.01;45.08;93155.16;4995598;28;20056;-92
2022/05/03 07:33:18;;;;;;;152.32;53.00;;;;;;;17.04;44.89;93159.59;4997432;28;20042;-90
2022/05/03 07:35:43;;;;;;;127.85;50.53;;;;;;;17.07;44.88;93153.13;5013930;28;20045;-88
2022/05/03 07:38:09;;;;;;;121.22;51.95;;;;;;;17.10;44.62;93166.50;4979002;28;20034;-89
2022/05/03 07:40:34;;;;;;;132.65;56.08;;;;;;;17.09;44.67;93162.31;4978595;28;20038;-91
2022/05/03 07:43:03;;;;;;;165.43;64.50;;;;;;;17.12;44.76;93164.00;4978411;28;20038;-88
2022/05/03 07:45:30;;;;;;;137.50;54.00;;;;;;;17.14;44.61;93161.50;5020380;28;20033;-92
2022/05/03 07:47:58;;;;;;;137.20;55.75;;;;;;;17.13;44.35;93151.81;5029253;28;20139;-91
2022/05/03 07:50:25;;;;;;;186.98;65.47;;;;;;;17.18;44.56;93163.22;5030331;28;20040;-90
2022/05/03 07:52:50;;;;;;;137.18;58.92;;;;;;;17.18;44.61;93155.75;5008365;28;20025;-91
2022/05/03 07:55:17;;;;;;;149.02;65.80;;;;;;;17.20;44.60;93158.00;4985807;28;20068;-90
2022/05/03 07:57:44;;;;;;;163.68;71.05;;;;;;;17.20;44.61;93156.00;4990132;28;20037;-89
2022/05/03 08:00:10;;;;;;;163.27;71.20;;;;;;;17.24;44.36;93155.72;5001282;28;20064;-90
2022/05/03 08:02:35;;;;;;;161.10;74.38;;;;;;;17.24;44.29;93163.94;4990341;28;20054;-90
2022/05/03 08:05:01;;;;;;;163.13;77.07;;;;;;;17.25;44.20;93165.41;4959687;28;20049;-91
2022/05/03 08:07:26;;;;;;;156.15;76.05;;;;;;;17.26;44.17;93173.09;4974175;28;20047;-89
2022/05/03 08:09:53;;;;;;;152.02;76.18;;;;;;;17.28;44.38;93167.13;4962922;28;20042;-88
2022/05/03 08:12:19;;;;;;;167.88;83.65;;;;;;;17.29;44.26;93168.59;4967707;28;20038;-89
2022/05/03 08:14:46;;;;;;;169.43;83.28;;;;;;;17.27;44.18;93174.56;4973923;28;20050;-88
2022/05/03 08:17:11;;;;;;;166.70;84.70;;;;;;;17.26;44.45;93178.56;4972204;28;20919;-87
2022/05/03 08:19:37;;;;;;;156.27;78.05;;;;;;;17.28;44.49;93178.06;4958225;28;20038;-87
2022/05/03 08:22:03;;;;;;;167.15;80.18;;;;;;;17.28;44.65;93180.78;4941831;28;20042;-90
2022/05/03 08:24:28;;;;;;;189.80;86.72;;;;;;;17.33;44.61;93177.25;4974765;28;20053;-88
2022/05/03 08:26:54;;;;;;;215.55;94.75;;;;;;;17.37;44.40;93174.97;4943379;28;20552;-87
2022/05/03 08:29:31;;;;;;;243.55;110.68;;;;;;;17.35;44.22;93175.50;4978063;28;20042;-90
2022/05/03 08:31:57;;;;;;;231.13;103.03;;;;;;;17.35;44.58;93177.47;4994519;28;20119;-90
2022/05/03 08:34:23;;;;;;;310.17;146.30;;;;;;;17.38;44.52;93174.47;4980510;28;20058;-88
2022/05/03 08:42:17;;;;;;;256.92;133.98;;;;;;;17.38;43.87;93190.88;4997439;28;20041;-91
2022/05/03 08:44:42;;;;;;;329.20;149.35;;;;;;;17.42;44.03;93190.59;4982583;28;20030;-90
2022/05/03 08:47:08;;;;;;;267.08;132.32;;;;;;;17.41;43.96;93189.13;5013252;22;20038;-90
2022/05/03 08:49:42;;;;;;;275.88;148.18;;;;;;;17.40;44.35;93188.38;4992103;28;20075;-91
2022/05/03 08:52:08;;;;;;;279.65;146.18;;;;;;;17.41;44.23;93184.38;4987497;28;20069;-91
2022/05/03 08:54:36;;;;;;;309.73;170.30;;;;;;;17.40;44.26;93185.63;4977628;28;20527;-90
2022/05/03 08:57:13;;;;;;;305.77;168.07;;;;;;;17.43;44.57;93187.34;4994148;28;20049;-89
2022/05/03 08:59:38;;;;;;;300.23;163.68;;;;;;;17.42;44.54;93180.41;5001795;28;20068;-90
2022/05/03 09:02:08;;;;;;;279.05;154.63;;;;;;;17.44;44.29;93177.16;5015477;28;20041;-91
2022/05/03 09:04:43;;;;;;;282.60;151.93;;;;;;;17.45;44.12;93179.38;4972318;28;20193;-90
2022/05/03 09:07:19;;;;;;;288.30;155.52;;;;;;;17.43;43.97;93190.09;4972554;28;20113;-89
2022/05/03 09:09:45;;;;;;;299.13;161.68;;;;;;;17.46;44.13;93189.06;4973016;28;20038;-87
2022/05/03 09:12:31;;;;;;;307.42;160.48;;;;;;;17.44;44.34;93182.63;4943962;28;20101;-88
2022/05/03 09:15:00;;;;;;;287.27;151.57;;;;;;;17.46;44.62;93182.88;4972806;28;20057;-89
2022/05/03 09:17:41;;;;;;;280.73;150.60;;;;;;;17.43;44.44;93181.88;4973741;28;20042;-88
2022/05/03 09:25:54;;;;;;;265.63;139.23;;;;;;;17.48;44.52;93175.63;4961869;28;20090;-88
2022/05/03 09:28:21;;;;;;;506.85;198.05;;;;;;;17.46;44.19;93180.13;4966021;28;20038;-88
2022/05/03 09:30:50;;;;;;;320.35;151.38;;;;;;;17.49;44.29;93181.84;4980159;28;20425;-89
2022/05/03 09:33:17;;;;;;;297.38;143.00;;;;;;;17.47;44.20;93174.16;4984285;28;20129;-87
2022/05/03 09:35:42;;;;;;;286.42;142.52;;;;;;;17.50;44.12;93177.88;4950975;28;20117;-84
2022/05/03 09:38:09;;;;;;;292.42;146.63;;;;;;;17.51;44.11;93184.81;5028528;28;20063;-86
2022/05/03 09:40:35;;;;;;;286.40;147.55;;;;;;;17.51;44.17;93173.88;5002150;28;20044;-86
2022/05/03 09:43:00;;;;;;;262.35;134.05;;;;;;;17.49;44.42;93176.38;4995839;28;20061;-86
2022/05/03 09:45:26;;;;;;;266.38;132.70;;;;;;;17.48;44.14;93175.63;4978946;28;20048;-86
2022/05/03 09:47:56;;;;;;;247.88;131.02;;;;;;;17.51;44.19;93179.34;4998833;28;20056;-87
2022/05/03 09:50:37;;;;;;;239.23;128.97;;;;;;;17.53;43.87;93178.84;4983907;28;20033;-89
2022/05/03 09:53:14;;;;;;;234.07;120.25;;;;;;;17.53;43.61;93170.63;5042745;28;20274;-87
2022/05/03 09:55:40;;;;;;;257.85;113.20;;;;;;;17.56;44.04;93167.59;4980747;28;20037;-88
2022/05/03 09:58:08;;;;;;;232.68;112.78;;;;;;;17.56;43.95;93166.88;4980972;28;20057;-85
2022/05/03 10:00:34;;;;;;;292.80;129.85;;;;;;;17.57;43.85;93165.63;4978082;28;20041;-86
2022/05/03 10:03:04;;;;;;;266.88;127.93;;;;;;;17.56;44.07;93169.59;4961491;28;20041;-86
2022/05/03 10:05:30;;;;;;;253.40;122.65;;;;;;;17.55;44.13;93165.38;5011143;28;20120;-83
2022/05/03 10:07:56;;;;;;;225.65;121.15;;;;;;;17.54;44.16;93169.38;5028860;28;20046;-86
2022/05/03 10:10:23;;;;;;;235.02;118.32;;;;;;;17.57;44.21;93160.88;4979962;28;20438;-83
2022/05/03 10:12:50;;;;;;;215.10;114.28;;;;;;;17.55;44.16;93168.84;4985993;28;20038;-84
2022/05/03 10:20:55;;;;;;;194.25;102.82;;;;;;;17.54;44.64;93156.44;4982762;28;20089;-85
2022/05/03 10:23:24;;;;;;;206.15;108.13;;;;;;;17.54;44.33;93169.38;4978939;28;20037;-86
2022/05/03 10:25:49;;;;;;;208.23;111.43;;;;;;;17.54;44.72;93158.47;4995369;28;20041;-86
2022/05/03 10:28:15;;;;;;;158.75;91.05;;;;;;;17.57;45.09;93158.16;5027557;28;20064;-88
2022/05/03 10:31:05;;;;;;;182.10;93.80;;;;;;;17.57;44.73;93155.41;4992862;28;20034;-85
2022/05/03 10:33:30;;;;;;;159.07;89.70;;;;;;;17.60;44.85;93156.41;5013742;28;20096;-86
2022/05/03 10:35:57;;;;;;;113.53;63.78;;;;;;;17.62;46.22;93156.63;5012604;28;20270;-86
2022/05/03 10:38:46;;;;;;;47.00;27.23;;;;;;;17.61;46.97;93153.16;4995888;28;20049;-87
2022/05/03 10:41:22;;;;;;;117.40;64.45;;;;;;;17.59;45.92;93144.72;4995908;28;20064;-87
2022/05/03 10:43:47;;;;;;;89.63;52.17;;;;;;;17.59;46.13;93144.72;5012356;28;20041;-84
2022/05/03 10:46:19;;;;;;;120.25;68.00;;;;;;;17.61;45.49;93141.47;4989356;28;20041;-87
2022/05/03 10:48:44;;;;;;;127.95;67.88;;;;;;;17.60;45.27;93146.22;4998196;28;20038;-88
2022/05/03 10:51:11;;;;;;;87.07;49.53;;;;;;;17.64;46.99;93143.19;4978416;28;20351;-88
2022/05/03 10:53:41;;;;;;;83.28;48.42;;;;;;;17.64;47.22;93141.22;4982020;28;20113;-89
2022/05/03 10:56:21;;;;;;;101.10;55.78;;;;;;;17.62;45.54;93140.97;4980104;28;20048;-90
2022/05/03 10:59:07;;;;;;;119.68;62.58;;;;;;;17.62;45.62;93140.97;4967651;28;20046;-87
2022/05/03 11:01:54;;;;;;;48.00;27.17;;;;;;;17.67;45.23;93131.28;4983643;28;20401;-89
2022/05/03 11:04:20;;;;;;;75.95;45.08;;;;;;;17.67;44.83;93140.22;4964613;28;20046;-90
2022/05/03 11:06:47;;;;;;;91.80;47.92;;;;;;;17.64;44.58;93133.03;4943010;28;20607;-90
2022/05/03 11:09:15;;;;;;;80.15;41.47;;;;;;;17.64;44.00;93132.25;4967348;28;20054;-88
2022/05/03 11:11:43;;;;;;;85.40;38.03;;;;;;;17.63;44.82;93128.03;4955736;28;20508;-90
2022/05/03 11:14:21;;;;;;;103.93;49.38;;;;;;;17.65;45.20;93131.03;4981400;28;20042;-89
2022/05/03 11:17:08;;;;;;;135.95;65.22;;;;;;;17.63;45.12;93128.78;4977701;28;20060;-88
2022/05/03 11:19:55;;;;;;;133.25;69.32;;;;;;;17.64;44.65;93118.59;4952610;28;20043;-91
2022/05/03 11:22:26;;;;;;;173.70;81.13;;;;;;;17.63;45.15;93117.84;4916271;29;20117;-90
2022/05/03 11:24:57;;;;;;;169.82;88.70;;;;;;;17.63;45.06;93108.91;4928608;29;20056;-88
2022/05/03 11:27:22;;;;;;;170.57;87.00;;;;;;;17.63;45.26;93112.38;4932830;28;20051;-88
2022/05/03 11:29:49;;;;;;;182.63;96.97;;;;;;;17.61;45.27;93101.22;4940163;28;20488;-87
2022/05/03 11:32:16;;;;;;;230.55;108.13;;;;;;;17.64;45.16;93105.69;4962984;28;20042;-87
2022/05/03 11:34:42;;;;;;;189.68;105.50;;;;;;;17.63;45.62;93106.19;4949325;28;20106;-86
2022/05/03 11:37:07;;;;;;;196.15;103.20;;;;;;;17.63;45.18;93098.72;4952640;28;20049;-86
2022/05/03 11:39:36;;;;;;;190.85;101.20;;;;;;;17.65;45.11;93103.69;4954397;28;20513;-90
2022/05/03 11:42:02;;;;;;;180.80;99.47;;;;;;;17.62;45.65;93105.44;4953782;28;20053;-86
2022/05/03 11:44:28;;;;;;;205.65;99.82;;;;;;;17.70;45.48;93094.72;4970056;28;20050;-86
2022/05/03 11:46:53;;;;;;;202.18;98.60;;;;;;;17.66;45.21;93094.25;4955901;28;20195;-91
2022/05/03 11:49:19;;;;;;;164.73;88.28;;;;;;;17.65;45.15;93096.25;4971186;28;20042;-85
2022/05/03 11:57:24;;;;;;;163.07;83.85;;;;;;;17.66;45.76;93091.50;5010031;28;20053;-86
2022/05/03 11:59:55;;;;;;;149.13;83.80;;;;;;;17.68;45.32;93092.47;4969583;28;20070;-85
2022/05/03 12:02:34;;;;;;;153.27;85.00;;;;;;;17.67;45.60;93090.25;4953318;28;20122;-86
2022/05/03 12:05:02;;;;;;;172.18;86.18;;;;;;;17.70;45.66;93089.25;4942078;28;20529;-88